Time;durP1;ratioP1;P1;durP2;ratioP2;P2;SDS_P1;SDS_P2;PMS_P1;PMS_P2;Temp;Humidity;BMP_temperature;BMP_pressure;BME280_temperature;BME280_humidity;BME280_pressure;Samples;Min_cycle;Max_cycle;Signal;HPM_P1;HPM_P2
2021/01/15 00:01:06;;;;;;;31.40;19.20;;;0.60;99.90;;;;;;5074245;28;20095;-74
2021/01/15 00:03:36;;;;;;;32.10;19.35;;;0.60;99.90;;;;;;5074228;28;20021;-75
2021/01/15 00:06:07;;;;;;;29.00;18.20;;;0.60;99.90;;;;;;5075646;28;20029;-75
2021/01/15 00:08:37;;;;;;;32.45;18.25;;;0.60;99.90;;;;;;5088547;28;20111;-76
2021/01/15 00:11:04;;;;;;;28.27;18.25;;;0.60;99.90;;;;;;5088927;28;20021;-76
2021/01/15 00:13:30;;;;;;;27.23;18.13;;;0.60;99.90;;;;;;5069262;28;20029;-76
2021/01/15 00:15:56;;;;;;;29.77;18.60;;;0.70;99.90;;;;;;5081321;28;20024;-73
2021/01/15 00:18:21;;;;;;;27.60;18.48;;;0.70;99.90;;;;;;5075628;28;20029;-74
2021/01/15 00:20:47;;;;;;;27.05;18.25;;;0.70;99.90;;;;;;5085226;28;20024;-74
2021/01/15 00:23:16;;;;;;;28.02;17.77;;;0.70;99.90;;;;;;5090794;28;20044;-75
2021/01/15 00:25:45;;;;;;;29.00;18.17;;;0.70;99.90;;;;;;5067221;28;20031;-73
2021/01/15 00:28:11;;;;;;;25.02;16.67;;;0.70;99.90;;;;;;5076949;28;20024;-73
2021/01/15 00:30:36;;;;;;;25.52;16.75;;;0.60;99.90;;;;;;5076699;28;20433;-72
2021/01/15 00:33:03;;;;;;;23.00;15.75;;;0.50;99.90;;;;;;5081280;28;20047;-75
2021/01/15 00:35:28;;;;;;;24.80;16.45;;;0.60;99.90;;;;;;5078381;28;20036;-75
2021/01/15 00:37:54;;;;;;;26.08;16.40;;;0.60;99.90;;;;;;5075177;28;20391;-74
2021/01/15 00:40:19;;;;;;;22.33;15.30;;;0.60;99.90;;;;;;5075567;28;20067;-76
2021/01/15 00:42:45;;;;;;;27.30;17.15;;;0.60;99.90;;;;;;5074608;28;20075;-73
2021/01/15 00:45:16;;;;;;;25.30;17.38;;;0.60;99.90;;;;;;5075150;28;20017;-74
2021/01/15 00:47:45;;;;;;;27.08;17.20;;;0.60;99.90;;;;;;5074251;28;20021;-74
2021/01/15 00:50:13;;;;;;;26.55;16.92;;;0.70;99.90;;;;;;5074261;28;20044;-74
2021/01/15 00:52:39;;;;;;;24.25;16.38;;;0.70;99.90;;;;;;5073067;28;20028;-76
2021/01/15 00:55:06;;;;;;;26.95;16.42;;;0.70;99.90;;;;;;5073026;28;20399;-76
2021/01/15 00:57:39;;;;;;;26.23;16.70;;;0.50;99.90;;;;;;5073285;28;20017;-75
2021/01/15 01:00:09;;;;;;;24.77;16.55;;;0.60;99.90;;;;;;5073395;28;20399;-76
2021/01/15 01:02:35;;;;;;;28.23;18.13;;;0.60;99.90;;;;;;5073233;28;20024;-76
2021/01/15 01:05:04;;;;;;;24.85;16.20;;;0.50;99.90;;;;;;5072735;28;20047;-74
2021/01/15 01:07:33;;;;;;;22.33;14.50;;;0.50;99.90;;;;;;5072278;28;20025;-74
2021/01/15 01:09:59;;;;;;;23.00;15.25;;;0.60;99.90;;;;;;5073288;28;20066;-75
2021/01/15 01:12:25;;;;;;;28.20;15.68;;;0.50;99.90;;;;;;5073359;28;20056;-76
2021/01/15 01:14:50;;;;;;;25.45;16.50;;;0.60;99.90;;;;;;5072208;28;20020;-73
2021/01/15 01:17:16;;;;;;;21.73;15.45;;;0.50;99.90;;;;;;5073311;28;20079;-75
2021/01/15 01:19:42;;;;;;;25.38;15.00;;;0.50;99.90;;;;;;5073317;28;20104;-74
2021/01/15 01:22:08;;;;;;;28.63;15.23;;;0.50;99.90;;;;;;5072942;28;20398;-75
2021/01/15 01:24:33;;;;;;;28.17;16.48;;;0.60;99.90;;;;;;5072511;28;20103;-76
2021/01/15 01:26:59;;;;;;;26.42;15.82;;;0.60;99.90;;;;;;5073940;28;20029;-73
2021/01/15 01:29:24;;;;;;;26.85;16.02;;;0.50;99.90;;;;;;5074654;28;20020;-74
2021/01/15 01:31:50;;;;;;;23.52;14.80;;;0.40;99.90;;;;;;5084883;28;20032;-75
2021/01/15 01:34:16;;;;;;;24.45;15.98;;;0.50;99.90;;;;;;5095771;28;20070;-75
2021/01/15 01:36:41;;;;;;;24.50;15.30;;;0.50;99.90;;;;;;5098054;28;20035;-76
2021/01/15 01:39:07;;;;;;;22.35;14.65;;;0.50;99.90;;;;;;5098422;28;20028;-76
2021/01/15 01:41:33;;;;;;;23.40;15.23;;;0.50;99.90;;;;;;5098348;28;20072;-75
2021/01/15 01:43:58;;;;;;;22.38;13.73;;;0.50;99.90;;;;;;5097732;28;20048;-75
2021/01/15 01:46:24;;;;;;;30.77;16.52;;;0.50;99.90;;;;;;5098546;28;20035;-75
2021/01/15 01:48:50;;;;;;;28.23;16.00;;;0.40;99.90;;;;;;5098661;28;20017;-75
2021/01/15 01:51:18;;;;;;;22.13;14.07;;;0.40;99.90;;;;;;5069497;28;20035;-73
2021/01/15 01:56:20;;;;;;;19.50;13.45;;;0.40;99.90;;;;;;5058903;28;20068;-70
2021/01/15 01:58:46;;;;;;;18.40;11.48;;;0.40;99.90;;;;;;5070299;28;20040;-68
2021/01/15 02:01:11;;;;;;;18.92;12.07;;;0.40;99.90;;;;;;5071151;28;20021;-68
2021/01/15 02:03:37;;;;;;;19.65;12.77;;;0.40;99.90;;;;;;5069885;28;20031;-69
2021/01/15 02:06:06;;;;;;;17.35;11.63;;;0.40;99.90;;;;;;5070644;28;20021;-68
2021/01/15 02:08:32;;;;;;;19.90;12.48;;;0.40;99.90;;;;;;5071546;28;20021;-68
2021/01/15 02:11:22;;;;;;;19.40;11.00;;;0.40;99.90;;;;;;5071519;28;20027;-68
2021/01/15 02:14:03;;;;;;;15.85;10.93;;;0.40;99.90;;;;;;5070499;28;20024;-68
2021/01/15 02:16:30;;;;;;;16.77;10.77;;;0.40;99.90;;;;;;5071340;28;20057;-66
2021/01/15 02:19:34;;;;;;;17.85;11.02;;;0.30;99.90;;;;;;5071169;28;20050;-67
2021/01/15 02:22:30;;;;;;;14.07;10.40;;;0.40;99.90;;;;;;5071169;28;20025;-67
2021/01/15 02:24:58;;;;;;;16.98;10.55;;;0.40;99.90;;;;;;5070237;28;20025;-68
2021/01/15 02:27:46;;;;;;;15.95;10.02;;;0.30;99.90;;;;;;5071361;28;20035;-67
2021/01/15 02:30:33;;;;;;;16.10;10.30;;;0.30;99.90;;;;;;5063747;28;20033;-67
2021/01/15 02:33:11;;;;;;;17.08;11.02;;;0.30;99.90;;;;;;5050810;28;20028;-67
2021/01/15 02:36:03;;;;;;;16.42;10.00;;;0.30;99.90;;;;;;5051561;28;20033;-67
2021/01/15 02:38:53;;;;;;;16.00;9.70;;;0.30;99.90;;;;;;5059667;28;20080;-68
2021/01/15 02:41:25;;;;;;;14.25;8.90;;;0.30;99.90;;;;;;5056501;28;20024;-69
2021/01/15 02:44:03;;;;;;;11.32;8.85;;;0.30;99.90;;;;;;5062016;28;20467;-67
2021/01/15 02:46:47;;;;;;;13.50;9.02;;;0.20;99.90;;;;;;5051770;28;20074;-67
2021/01/15 02:49:14;;;;;;;13.32;9.05;;;0.20;99.90;;;;;;5050887;28;20021;-68
2021/01/15 02:51:41;;;;;;;15.50;9.23;;;0.20;99.90;;;;;;5050916;28;20113;-68
2021/01/15 02:54:07;;;;;;;15.77;9.07;;;0.20;99.90;;;;;;5050273;28;20406;-69
2021/01/15 02:56:34;;;;;;;12.32;8.43;;;0.30;99.90;;;;;;5050962;28;20108;-68
2021/01/15 02:59:00;;;;;;;13.93;9.10;;;0.30;99.90;;;;;;5050797;28;20024;-69
2021/01/15 03:01:32;;;;;;;13.80;8.60;;;0.20;99.90;;;;;;5034306;28;20404;-68
2021/01/15 03:04:08;;;;;;;13.82;9.77;;;0.20;99.90;;;;;;5030036;28;20057;-68
2021/01/15 03:06:44;;;;;;;14.15;9.10;;;0.20;99.90;;;;;;5030932;28;20439;-67
2021/01/15 03:09:11;;;;;;;14.25;8.85;;;0.20;99.90;;;;;;5030819;28;20060;-68
2021/01/15 03:11:38;;;;;;;10.85;7.85;;;0.20;99.90;;;;;;5030893;28;20028;-68
2021/01/15 03:14:06;;;;;;;13.90;8.98;;;0.20;99.90;;;;;;5030064;28;20029;-67
2021/01/15 03:16:33;;;;;;;13.63;8.02;;;0.10;99.90;;;;;;5032088;28;20498;-68
2021/01/15 03:19:00;;;;;;;12.20;8.30;;;0.20;99.90;;;;;;5034247;28;20060;-68
2021/01/15 03:21:29;;;;;;;13.07;8.93;;;0.20;99.90;;;;;;5034643;28;20072;-69
2021/01/15 03:24:02;;;;;;;16.85;9.32;;;0.20;99.90;;;;;;5034097;28;20021;-69
2021/01/15 03:26:28;;;;;;;11.32;8.00;;;0.20;99.90;;;;;;5034780;28;20056;-68
2021/01/15 03:28:54;;;;;;;12.77;9.40;;;0.10;99.90;;;;;;5034622;28;20029;-68
2021/01/15 03:31:20;;;;;;;15.52;9.02;;;0.20;99.90;;;;;;5066217;28;20111;-69
2021/01/15 03:33:45;;;;;;;15.40;9.32;;;0.00;99.90;;;;;;5073538;28;20031;-68
2021/01/15 03:36:11;;;;;;;12.90;8.93;;;0.10;99.90;;;;;;5074298;28;20158;-69
2021/01/15 03:38:37;;;;;;;14.55;8.95;;;0.10;99.90;;;;;;5074487;28;20025;-68
2021/01/15 03:41:02;;;;;;;12.85;8.82;;;0.10;99.90;;;;;;5075807;28;20571;-68
2021/01/15 03:43:28;;;;;;;14.25;8.25;;;0.00;99.90;;;;;;5073258;28;20025;-69
2021/01/15 03:45:55;;;;;;;13.57;7.90;;;0.00;99.90;;;;;;5072812;28;20481;-68
2021/01/15 03:48:21;;;;;;;12.23;8.30;;;0.00;99.90;;;;;;5073080;28;20024;-68
2021/01/15 03:50:47;;;;;;;12.60;8.23;;;-0.10;99.90;;;;;;5072991;28;20466;-68
2021/01/15 03:53:14;;;;;;;12.00;8.05;;;-0.10;99.90;;;;;;5072303;28;20500;-68
2021/01/15 03:55:39;;;;;;;12.98;8.43;;;-0.10;99.90;;;;;;5073324;28;20127;-69
2021/01/15 03:58:05;;;;;;;12.80;9.05;;;-0.10;99.90;;;;;;5074331;28;20063;-68
2021/01/15 04:00:31;;;;;;;11.15;8.45;;;-0.20;99.90;;;;;;5073867;28;20075;-68
2021/01/15 04:02:56;;;;;;;11.70;8.07;;;-0.20;99.90;;;;;;5071934;28;20020;-68
2021/01/15 04:05:22;;;;;;;12.98;7.93;;;-0.20;99.90;;;;;;5073804;28;20029;-68
2021/01/15 04:07:48;;;;;;;12.40;8.25;;;-0.20;99.90;;;;;;5072955;28;20031;-68
2021/01/15 04:10:15;;;;;;;11.90;7.82;;;-0.30;99.90;;;;;;5073909;28;20017;-69
2021/01/15 04:12:42;;;;;;;11.13;8.05;;;-0.30;99.90;;;;;;5073190;28;20078;-68
2021/01/15 04:15:09;;;;;;;11.38;7.38;;;-0.40;99.90;;;;;;5073258;28;20132;-68
2021/01/15 04:17:36;;;;;;;12.93;7.72;;;-0.40;99.90;;;;;;5073478;28;20025;-68
2021/01/15 04:20:03;;;;;;;10.85;7.50;;;-0.40;99.90;;;;;;5073526;28;20028;-68
2021/01/15 04:22:37;;;;;;;12.82;7.68;;;-0.40;99.90;;;;;;5073626;28;20021;-68
2021/01/15 04:25:04;;;;;;;10.43;7.05;;;-0.50;99.90;;;;;;5073417;28;20020;-69
2021/01/15 04:27:30;;;;;;;11.60;7.60;;;-0.50;99.90;;;;;;5071540;28;20016;-67
2021/01/15 04:29:56;;;;;;;10.55;6.35;;;-0.50;99.90;;;;;;5072874;28;20027;-68
2021/01/15 04:32:23;;;;;;;8.57;6.85;;;-0.50;99.90;;;;;;5073495;28;20068;-68
2021/01/15 04:34:49;;;;;;;10.20;6.57;;;-0.50;99.90;;;;;;5072611;28;20390;-68
2021/01/15 04:37:15;;;;;;;8.93;6.82;;;-0.60;99.90;;;;;;5073198;28;20024;-69
2021/01/15 04:39:40;;;;;;;7.80;5.82;;;-0.60;99.90;;;;;;5054984;28;20028;-68
2021/01/15 04:42:07;;;;;;;10.15;6.40;;;-0.60;99.90;;;;;;5073045;28;20035;-68
2021/01/15 04:44:33;;;;;;;13.30;7.00;;;-0.60;99.90;;;;;;5071027;28;20020;-67
2021/01/15 04:47:02;;;;;;;11.57;6.88;;;-0.70;99.90;;;;;;5072980;28;20058;-66
2021/01/15 04:49:29;;;;;;;10.75;6.68;;;-0.70;99.90;;;;;;5073080;28;20063;-67
2021/01/15 04:51:57;;;;;;;10.07;6.60;;;-0.80;99.90;;;;;;5073007;28;20032;-67
2021/01/15 04:54:52;;;;;;;10.23;6.53;;;-0.70;99.90;;;;;;5072171;28;20029;-67
2021/01/15 04:57:19;;;;;;;8.15;6.57;;;-0.80;99.90;;;;;;5071882;28;20028;-66
2021/01/15 04:59:49;;;;;;;9.23;6.82;;;-0.80;99.90;;;;;;5072334;28;20125;-69
2021/01/15 05:02:19;;;;;;;9.55;6.63;;;-0.90;99.90;;;;;;5072417;28;20017;-69
2021/01/15 05:04:45;;;;;;;12.38;6.53;;;-0.90;99.90;;;;;;5071871;28;20031;-67
2021/01/15 05:07:13;;;;;;;11.60;7.28;;;-1.00;99.90;;;;;;5072800;28;20108;-67
2021/01/15 05:09:42;;;;;;;8.15;6.50;;;-1.00;99.90;;;;;;5072611;28;20017;-68
2021/01/15 05:12:12;;;;;;;9.82;6.70;;;-1.00;99.90;;;;;;5054604;28;20024;-67
2021/01/15 05:14:41;;;;;;;11.25;7.05;;;-1.10;99.90;;;;;;5071562;28;20020;-69
2021/01/15 05:17:08;;;;;;;10.50;6.60;;;-1.10;99.90;;;;;;5072361;28;20055;-66
2021/01/15 05:19:39;;;;;;;11.23;6.10;;;-1.10;99.90;;;;;;5066922;28;20028;-70
2021/01/15 05:22:08;;;;;;;8.48;6.63;;;-1.10;99.90;;;;;;5068818;28;20124;-69
2021/01/15 05:24:34;;;;;;;9.07;6.22;;;-1.10;99.90;;;;;;5070417;28;20517;-68
2021/01/15 05:30:23;;;;;;;7.20;6.15;;;-1.20;99.90;;;;;;5072545;28;20142;-69
2021/01/15 05:32:54;;;;;;;8.48;6.15;;;-1.20;99.90;;;;;;5071745;28;20035;-69
2021/01/15 05:35:22;;;;;;;9.00;6.30;;;-1.20;99.90;;;;;;5072112;28;20071;-68
2021/01/15 05:37:56;;;;;;;9.48;6.05;;;-1.30;99.90;;;;;;5071150;28;20032;-68
2021/01/15 05:40:37;;;;;;;10.55;6.45;;;-1.30;99.90;;;;;;5070762;28;20052;-67
2021/01/15 05:43:03;;;;;;;12.77;6.70;;;-1.30;99.90;;;;;;5070554;28;20013;-67
2021/01/15 05:45:29;;;;;;;9.65;6.70;;;-1.40;99.90;;;;;;5070898;28;20394;-67
2021/01/15 05:47:54;;;;;;;8.98;7.05;;;-1.40;99.90;;;;;;5070971;28;20078;-68
2021/01/15 05:50:20;;;;;;;12.40;7.55;;;-1.40;99.90;;;;;;5070623;28;20100;-67
2021/01/15 05:52:56;;;;;;;11.23;7.82;;;-1.50;99.90;;;;;;5070125;28;20056;-69
2021/01/15 05:55:24;;;;;;;10.35;7.18;;;-1.50;99.90;;;;;;5070009;28;20037;-68
2021/01/15 05:57:50;;;;;;;12.43;7.32;;;-1.50;99.90;;;;;;5049898;28;20040;-68
2021/01/15 06:00:25;;;;;;;13.57;8.05;;;-1.50;99.90;;;;;;5050375;28;20034;-70
2021/01/15 06:02:57;;;;;;;11.05;7.57;;;-1.40;99.90;;;;;;5049579;28;20094;-66
2021/01/15 06:05:23;;;;;;;;;;;-1.60;99.90;;;;;;5051322;28;20037;-67
2021/01/15 06:07:58;;;;;;;11.35;8.10;;;-1.60;99.90;;;;;;5063194;28;19923;-68
2021/01/15 06:10:25;;;;;;;13.25;8.57;;;-1.60;99.90;;;;;;5071297;28;20078;-66
2021/01/15 06:12:52;;;;;;;16.75;8.68;;;-1.70;99.90;;;;;;5070782;28;20021;-66
2021/01/15 06:15:17;;;;;;;12.77;8.50;;;-1.80;99.90;;;;;;5065281;28;20502;-67
2021/01/15 06:17:50;;;;;;;14.63;9.23;;;-1.80;99.90;;;;;;5051228;28;20135;-68
2021/01/15 06:20:21;;;;;;;;;;;-1.80;99.90;;;;;;5051305;28;20037;-67
2021/01/15 06:22:54;;;;;;;15.00;9.95;;;-1.80;99.90;;;;;;5052532;28;19916;-67
2021/01/15 06:25:29;;;;;;;15.43;9.63;;;-1.80;99.90;;;;;;5051475;28;20064;-67
2021/01/15 06:28:00;;;;;;;13.93;8.90;;;-1.80;99.90;;;;;;5050708;28;20437;-67
2021/01/15 06:30:29;;;;;;;16.52;9.50;;;-1.80;99.90;;;;;;5051102;28;20116;-66
2021/01/15 06:33:06;;;;;;;19.02;10.30;;;-1.90;99.90;;;;;;5032931;28;20083;-68
2021/01/15 06:35:33;;;;;;;20.00;11.02;;;-1.90;99.90;;;;;;5055746;28;20017;-67
2021/01/15 06:38:06;;;;;;;14.25;9.32;;;-1.90;99.90;;;;;;5083717;28;20052;-66
2021/01/15 06:40:31;;;;;;;18.77;10.55;;;-1.90;99.90;;;;;;5075193;28;20107;-68
2021/01/15 06:43:00;;;;;;;13.75;9.23;;;-1.90;99.90;;;;;;5078406;28;20616;-67
2021/01/15 06:45:43;;;;;;;16.65;10.80;;;-2.00;99.90;;;;;;5071469;28;20085;-66
2021/01/15 06:48:11;;;;;;;21.73;10.38;;;-2.00;99.90;;;;;;5070291;28;20040;-67
2021/01/15 06:50:41;;;;;;;15.23;9.93;;;-2.10;99.90;;;;;;5070191;28;20056;-67
2021/01/15 06:53:19;;;;;;;20.50;11.95;;;-2.00;99.90;;;;;;5053551;28;20025;-67
2021/01/15 06:55:55;;;;;;;26.63;13.40;;;-1.50;99.90;;;;;;5050124;28;20040;-67
2021/01/15 06:58:25;;;;;;;22.55;12.85;;;-1.10;99.90;;;;;;5050194;28;20090;-66
2021/01/15 07:01:19;;;;;;;21.20;12.15;;;-1.00;99.90;;;;;;5050209;28;20025;-66
2021/01/15 07:03:50;;;;;;;23.67;12.63;;;-1.00;99.90;;;;;;5050221;28;20024;-67
2021/01/15 07:06:26;;;;;;;17.90;11.98;;;-0.40;99.90;;;;;;5036528;28;20026;-65
2021/01/15 07:08:54;;;;;;;20.00;9.98;;;-0.80;99.90;;;;;;5029863;28;20025;-67
2021/01/15 07:11:23;;;;;;;15.10;10.32;;;-1.20;99.90;;;;;;5030671;28;20021;-67
2021/01/15 07:13:54;;;;;;;18.90;10.02;;;-1.40;99.90;;;;;;5030194;28;20033;-67
2021/01/15 07:16:30;;;;;;;19.67;10.65;;;-1.60;99.90;;;;;;5030332;28;20491;-67
2021/01/15 07:19:08;;;;;;;22.13;11.18;;;-1.90;99.90;;;;;;5031074;28;20032;-67
2021/01/15 07:21:36;;;;;;;17.15;10.45;;;-2.00;99.90;;;;;;5030963;28;20026;-67
2021/01/15 07:24:09;;;;;;;22.45;12.35;;;-2.10;99.90;;;;;;5029749;28;20026;-68
2021/01/15 07:26:41;;;;;;;19.15;11.73;;;-2.20;99.90;;;;;;5030528;28;21660;-63
2021/01/15 07:29:16;;;;;;;23.13;12.48;;;-2.10;99.90;;;;;;5030207;28;20033;-63
2021/01/15 07:31:47;;;;;;;19.33;12.07;;;-2.20;99.90;;;;;;5030625;28;20029;-63
2021/01/15 07:34:20;;;;;;;21.88;12.07;;;-2.20;99.90;;;;;;5040076;28;20102;-61
2021/01/15 07:36:46;;;;;;;19.85;12.10;;;-2.20;99.90;;;;;;5046418;28;20021;-63
2021/01/15 07:39:24;;;;;;;19.67;11.00;;;-2.10;99.90;;;;;;5048224;28;20025;-64
2021/01/15 07:41:54;;;;;;;19.08;11.82;;;-2.00;99.90;;;;;;5047681;28;20402;-64
2021/01/15 07:44:25;;;;;;;23.05;12.52;;;-1.90;99.90;;;;;;5028350;28;20041;-64
2021/01/15 07:46:56;;;;;;;21.33;11.80;;;-1.90;99.90;;;;;;5030171;28;20028;-63
2021/01/15 07:49:23;;;;;;;20.05;12.13;;;-1.70;99.90;;;;;;5030997;28;20032;-62
2021/01/15 07:52:10;;;;;;;20.55;11.35;;;-1.50;99.90;;;;;;5030669;28;20484;-65
2021/01/15 07:54:49;;;;;;;20.08;11.95;;;-1.00;99.90;;;;;;5036499;28;20061;-65
2021/01/15 07:57:19;;;;;;;19.95;11.25;;;-0.60;99.90;;;;;;5050100;28;20439;-63
2021/01/15 07:59:45;;;;;;;16.00;11.13;;;0.10;99.90;;;;;;5049850;28;20040;-64
2021/01/15 08:02:15;;;;;;;13.80;10.15;;;0.60;99.90;;;;;;5046604;28;20517;-64
2021/01/15 08:04:40;;;;;;;13.77;8.90;;;0.80;99.90;;;;;;5032050;28;20034;-65
2021/01/15 08:07:33;;;;;;;11.88;8.35;;;0.80;99.90;;;;;;5039746;28;20017;-64
2021/01/15 08:09:59;;;;;;;12.63;8.45;;;0.60;99.90;;;;;;5053384;28;20025;-64
2021/01/15 08:12:25;;;;;;;11.65;8.75;;;0.60;99.90;;;;;;5053597;28;20383;-66
2021/01/15 08:14:51;;;;;;;13.77;8.38;;;0.80;99.90;;;;;;5052161;28;20469;-65
2021/01/15 08:17:26;;;;;;;12.95;8.45;;;1.10;99.90;;;;;;5052848;28;20040;-64
2021/01/15 08:19:52;;;;;;;11.23;7.57;;;1.40;99.90;;;;;;5053448;28;20108;-64
2021/01/15 08:22:19;;;;;;;28.45;14.00;;;1.40;99.90;;;;;;5053384;28;20025;-64
2021/01/15 08:24:49;;;;;;;14.68;10.85;;;2.80;99.90;;;;;;5051906;28;20017;-65
2021/01/15 08:27:19;;;;;;;11.60;6.90;;;3.10;99.90;;;;;;5052988;28;20021;-64
2021/01/15 08:29:45;;;;;;;12.75;5.97;;;3.10;99.90;;;;;;5053245;28;20033;-64
2021/01/15 08:32:12;;;;;;;9.63;6.82;;;3.10;99.90;;;;;;5044709;28;20033;-66
2021/01/15 08:34:38;;;;;;;7.28;6.25;;;3.40;99.90;;;;;;5032425;28;20101;-64
2021/01/15 08:37:06;;;;;;;7.40;6.05;;;4.10;99.90;;;;;;5039052;28;20028;-63
2021/01/15 08:40:02;;;;;;;8.20;6.18;;;5.00;99.90;;;;;;5052854;28;20022;-62
2021/01/15 08:42:31;;;;;;;6.40;5.70;;;5.90;99.90;;;;;;5032831;28;20041;-66
2021/01/15 08:44:59;;;;;;;7.40;6.03;;;6.10;99.90;;;;;;5030719;28;20087;-64
2021/01/15 08:47:25;;;;;;;9.35;6.43;;;6.20;99.90;;;;;;5031179;28;20032;-65
2021/01/15 08:49:59;;;;;;;8.38;6.22;;;6.60;99.90;;;;;;5032893;28;20036;-63
2021/01/15 08:52:31;;;;;;;9.75;6.13;;;7.00;99.90;;;;;;5048261;28;20486;-63
2021/01/15 08:54:59;;;;;;;7.63;6.30;;;7.40;99.60;;;;;;5042156;28;20044;-64
2021/01/15 08:57:29;;;;;;;9.18;6.18;;;7.40;98.90;;;;;;5033258;28;20355;-64
2021/01/15 08:59:56;;;;;;;6.85;6.13;;;6.90;99.20;;;;;;5049124;28;20029;-64
2021/01/15 09:02:23;;;;;;;9.23;6.82;;;6.70;99.70;;;;;;5053447;28;20121;-66
2021/01/15 09:04:50;;;;;;;8.15;6.15;;;6.80;99.70;;;;;;5052605;28;20094;-65
2021/01/15 09:07:17;;;;;;;8.57;6.47;;;7.10;98.40;;;;;;5060559;28;20509;-63
2021/01/15 09:09:44;;;;;;;9.20;6.43;;;7.00;98.30;;;;;;5072882;28;20025;-63
2021/01/15 09:12:11;;;;;;;12.93;6.38;;;7.30;98.10;;;;;;5072942;28;20461;-62
2021/01/15 09:14:37;;;;;;;7.13;5.80;;;5.70;99.90;;;;;;5055706;28;20025;-63
2021/01/15 09:17:07;;;;;;;9.00;6.95;;;6.10;99.90;;;;;;5052513;28;20059;-64
2021/01/15 09:19:34;;;;;;;10.65;7.53;;;6.40;99.90;;;;;;5052286;28;20033;-65
2021/01/15 09:22:02;;;;;;;7.85;6.82;;;6.20;99.90;;;;;;5052672;28;20032;-63
2021/01/15 09:24:29;;;;;;;9.15;7.00;;;5.50;99.90;;;;;;5051895;28;20028;-67
2021/01/15 09:27:06;;;;;;;8.98;7.32;;;5.50;99.90;;;;;;5052454;28;20029;-66
2021/01/15 09:29:34;;;;;;;11.25;7.05;;;5.50;99.90;;;;;;5052103;28;20029;-68
2021/01/15 09:32:01;;;;;;;8.27;6.40;;;5.50;99.90;;;;;;5052626;28;20098;-68
2021/01/15 09:34:27;;;;;;;10.10;9.10;;;5.50;99.90;;;;;;5051447;28;20398;-68
2021/01/15 09:36:53;;;;;;;10.35;6.95;;;5.90;99.90;;;;;;5056700;28;20033;-69
2021/01/15 09:39:22;;;;;;;7.18;5.93;;;6.70;99.90;;;;;;5071611;28;20548;-70
2021/01/15 09:41:53;;;;;;;7.53;5.80;;;7.70;99.90;;;;;;5071857;28;20052;-71
2021/01/15 09:44:21;;;;;;;8.23;5.88;;;8.30;97.50;;;;;;5071061;28;20469;-71
2021/01/15 09:46:48;;;;;;;7.35;6.00;;;8.60;96.90;;;;;;5071674;28;20021;-67
2021/01/15 09:49:14;;;;;;;6.05;5.45;;;8.50;97.00;;;;;;5053882;28;20458;-67
2021/01/15 09:51:40;;;;;;;9.10;6.47;;;9.60;95.50;;;;;;5071849;28;20040;-68
2021/01/15 09:54:06;;;;;;;6.55;5.80;;;10.70;92.40;;;;;;5047651;28;20040;-68
2021/01/15 09:56:43;;;;;;;6.22;5.65;;;11.80;91.40;;;;;;5046585;28;20028;-68
2021/01/15 09:59:11;;;;;;;6.97;6.20;;;13.30;83.30;;;;;;5033792;28;20497;-68
2021/01/15 10:01:37;;;;;;;6.70;5.15;;;14.30;77.90;;;;;;5051549;28;20029;-70
2021/01/15 10:04:03;;;;;;;7.35;5.65;;;15.60;70.50;;;;;;5032885;28;20459;-68
2021/01/15 10:06:29;;;;;;;6.80;5.60;;;16.90;65.10;;;;;;5052591;28;20025;-70
2021/01/15 10:08:58;;;;;;;7.35;5.35;;;17.70;61.30;;;;;;5053733;28;20090;-69
2021/01/15 10:11:26;;;;;;;6.85;5.20;;;18.90;55.90;;;;;;5071033;28;20031;-68
2021/01/15 10:13:56;;;;;;;6.43;5.22;;;18.30;54.90;;;;;;5070954;28;20478;-68
2021/01/15 10:16:22;;;;;;;5.60;4.95;;;18.40;53.90;;;;;;5074629;28;20390;-67
2021/01/15 10:18:48;;;;;;;7.32;6.20;;;18.90;50.70;;;;;;5068434;28;20025;-68
2021/01/15 10:21:17;;;;;;;6.55;5.95;;;20.00;50.60;;;;;;5045205;28;20387;-70
2021/01/15 10:23:43;;;;;;;6.45;5.75;;;20.80;48.10;;;;;;5030614;28;20061;-71
2021/01/15 10:26:08;;;;;;;5.80;5.15;;;21.70;46.90;;;;;;5030299;28;20049;-69
2021/01/15 10:28:34;;;;;;;6.07;5.47;;;22.00;44.10;;;;;;5031406;28;20114;-68
2021/01/15 10:31:00;;;;;;;6.90;5.70;;;21.40;44.80;;;;;;5030964;28;20037;-68
2021/01/15 10:33:26;;;;;;;6.05;5.45;;;19.70;45.60;;;;;;5030323;28;20038;-69
2021/01/15 10:35:52;;;;;;;5.20;4.75;;;20.50;44.90;;;;;;5030700;28;20053;-69
2021/01/15 10:38:18;;;;;;;6.10;5.15;;;17.90;48.20;;;;;;5048535;28;20025;-69
2021/01/15 10:40:45;;;;;;;5.07;4.53;;;19.60;47.60;;;;;;5040817;28;20033;-70
2021/01/15 10:43:12;;;;;;;5.97;4.90;;;19.00;45.60;;;;;;5041645;28;20070;-71
2021/01/15 10:45:40;;;;;;;6.32;5.03;;;19.10;46.90;;;;;;5050576;28;20484;-69
2021/01/15 10:48:07;;;;;;;6.38;4.90;;;18.70;47.30;;;;;;5050841;28;20052;-69
2021/01/15 10:50:33;;;;;;;5.40;4.93;;;19.80;46.50;;;;;;5041302;28;20025;-67
2021/01/15 10:52:59;;;;;;;5.20;4.80;;;20.30;45.80;;;;;;5060512;28;20092;-69
2021/01/15 10:55:26;;;;;;;5.60;5.07;;;20.60;44.20;;;;;;5050210;28;20122;-68
2021/01/15 10:57:52;;;;;;;6.95;5.70;;;20.30;45.30;;;;;;5050542;28;20032;-69
2021/01/15 11:00:18;;;;;;;5.78;4.78;;;20.20;45.30;;;;;;5050621;28;20021;-69
2021/01/15 11:02:48;;;;;;;5.53;5.03;;;18.90;47.10;;;;;;5049999;28;20380;-68
2021/01/15 11:05:14;;;;;;;5.43;4.82;;;19.20;47.80;;;;;;5050354;28;20404;-68
2021/01/15 11:07:41;;;;;;;4.95;4.55;;;19.80;46.30;;;;;;5061380;28;20023;-68
2021/01/15 11:10:07;;;;;;;5.38;4.88;;;20.20;45.00;;;;;;5070477;28;20021;-70
2021/01/15 11:12:33;;;;;;;5.43;4.93;;;19.30;45.20;;;;;;5070698;28;20038;-70
2021/01/15 11:14:59;;;;;;;5.95;4.60;;;21.00;45.80;;;;;;5069819;28;20036;-70
2021/01/15 11:17:24;;;;;;;5.28;4.68;;;20.70;44.20;;;;;;5070697;28;20081;-69
2021/01/15 11:19:50;;;;;;;6.20;4.75;;;18.80;44.80;;;;;;5041646;28;20053;-69
2021/01/15 11:22:16;;;;;;;5.93;5.43;;;18.50;46.80;;;;;;5030454;28;20030;-67
2021/01/15 11:24:42;;;;;;;6.53;4.93;;;17.60;48.80;;;;;;5029457;28;20530;-67
2021/01/15 11:27:07;;;;;;;4.20;3.88;;;18.00;49.00;;;;;;5037681;28;20086;-66
2021/01/15 11:29:33;;;;;;;4.72;4.05;;;19.60;47.40;;;;;;5050156;28;20025;-66
2021/01/15 11:31:59;;;;;;;4.75;4.35;;;19.70;46.80;;;;;;5050245;28;20119;-68
2021/01/15 11:34:25;;;;;;;4.20;3.90;;;20.10;46.00;;;;;;5049977;28;20054;-67
2021/01/15 11:36:51;;;;;;;5.25;4.25;;;20.40;45.70;;;;;;5054738;28;20693;-66
2021/01/15 11:39:17;;;;;;;4.70;4.30;;;20.30;44.60;;;;;;5056125;28;20048;-67
2021/01/15 11:41:43;;;;;;;4.68;4.13;;;21.20;43.90;;;;;;5074672;28;20028;-67
2021/01/15 11:44:10;;;;;;;5.32;4.85;;;20.80;43.20;;;;;;5073883;28;20070;-67
2021/01/15 11:46:36;;;;;;;4.47;4.07;;;20.70;45.00;;;;;;5073912;28;20535;-66
2021/01/15 11:49:03;;;;;;;4.95;4.55;;;19.50;45.00;;;;;;5074071;28;20046;-66
2021/01/15 11:51:29;;;;;;;5.68;5.13;;;19.70;46.30;;;;;;5073599;28;20021;-68
2021/01/15 11:53:55;;;;;;;5.28;4.78;;;20.00;46.30;;;;;;5060932;28;20459;-67
2021/01/15 11:56:21;;;;;;;5.18;4.72;;;20.90;44.50;;;;;;5053820;28;20128;-67
2021/01/15 11:58:47;;;;;;;5.07;4.60;;;21.70;43.60;;;;;;5055363;28;20538;-66
2021/01/15 12:01:15;;;;;;;4.43;4.03;;;21.90;42.40;;;;;;5054001;28;20025;-66
2021/01/15 12:03:41;;;;;;;4.93;4.53;;;21.60;41.40;;;;;;5053456;28;20029;-67
2021/01/15 12:06:06;;;;;;;4.82;4.43;;;22.40;41.10;;;;;;5053430;28;20028;-67
2021/01/15 12:08:32;;;;;;;5.28;4.78;;;22.10;41.20;;;;;;5072305;28;20055;-66
2021/01/15 12:11:02;;;;;;;4.97;4.50;;;22.40;40.50;;;;;;5073470;28;20382;-67
2021/01/15 12:13:28;;;;;;;6.78;4.13;;;21.60;41.60;;;;;;5073232;28;20020;-66
2021/01/15 12:15:55;;;;;;;6.15;4.80;;;20.40;42.90;;;;;;5061260;28;20043;-66
2021/01/15 12:18:22;;;;;;;5.63;5.10;;;19.30;44.70;;;;;;5053732;28;20070;-68
2021/01/15 12:20:48;;;;;;;5.80;5.20;;;19.50;45.00;;;;;;5053499;28;20025;-67
2021/01/15 12:23:14;;;;;;;4.88;4.45;;;20.00;44.40;;;;;;5052508;28;20502;-67
2021/01/15 12:25:40;;;;;;;5.63;5.13;;;18.90;45.00;;;;;;5053060;28;20162;-67
2021/01/15 12:28:07;;;;;;;6.53;5.72;;;19.10;45.70;;;;;;5053438;28;20444;-68
2021/01/15 12:30:33;;;;;;;5.40;4.75;;;16.50;54.40;;;;;;5053590;28;20027;-68
2021/01/15 12:33:04;;;;;;;5.80;5.00;;;15.30;58.10;;;;;;5052715;28;20099;-66
2021/01/15 12:35:30;;;;;;;8.37;4.80;;;15.90;52.60;;;;;;5043141;28;20028;-66
2021/01/15 12:38:01;;;;;;;6.55;4.70;;;16.60;51.30;;;;;;5049448;28;20025;-66
2021/01/15 12:40:26;;;;;;;7.30;5.10;;;16.80;51.90;;;;;;5043051;28;20502;-67
2021/01/15 12:42:52;;;;;;;5.32;4.82;;;18.00;48.20;;;;;;5047672;28;20112;-67
2021/01/15 12:45:18;;;;;;;4.68;4.28;;;18.90;46.20;;;;;;5051804;28;20091;-66
2021/01/15 12:47:43;;;;;;;4.40;4.00;;;19.40;45.90;;;;;;5052455;28;20479;-66
2021/01/15 12:50:09;;;;;;;5.50;5.07;;;17.10;47.20;;;;;;5052123;28;20088;-67
2021/01/15 12:52:35;;;;;;;7.07;6.38;;;16.80;48.80;;;;;;5052396;28;20422;-67
2021/01/15 12:55:00;;;;;;;7.05;5.70;;;17.70;47.20;;;;;;5033499;28;20037;-67
2021/01/15 12:57:26;;;;;;;8.63;5.05;;;18.30;46.30;;;;;;5052673;28;20021;-67